Time;durP1;ratioP1;P1;durP2;ratioP2;P2;SDS_P1;SDS_P2;PMS_P1;PMS_P2;Temp;Humidity;BMP_temperature;BMP_pressure;BME280_temperature;BME280_humidity;BME280_pressure;Samples;Min_cycle;Max_cycle;Signal;HPM_P1;HPM_P2
2022/04/15 00:01:40;;;;;;;15.43;5.18;;;8.40;99.90;;;;;;5076329;28;20044;-75
2022/04/15 00:04:06;;;;;;;8.40;4.65;;;8.30;99.90;;;;;;5075775;28;20036;-75
2022/04/15 00:06:33;;;;;;;8.00;4.65;;;8.20;99.90;;;;;;5075609;28;20039;-75
2022/04/15 00:08:59;;;;;;;9.50;5.03;;;8.20;99.90;;;;;;5075308;28;20032;-75
2022/04/15 00:11:25;;;;;;;10.13;4.57;;;8.20;99.90;;;;;;5075474;28;20382;-75
2022/04/15 00:13:51;;;;;;;9.10;4.03;;;8.20;99.90;;;;;;5075556;28;20047;-75
2022/04/15 00:16:17;;;;;;;9.15;5.10;;;8.20;99.90;;;;;;5075475;28;20106;-75
2022/04/15 00:18:43;;;;;;;11.15;4.68;;;8.20;99.90;;;;;;5075483;28;20036;-75
2022/04/15 00:21:09;;;;;;;6.32;4.18;;;8.10;99.90;;;;;;5075521;28;20105;-75
2022/04/15 00:23:35;;;;;;;8.50;4.20;;;8.10;99.90;;;;;;5075394;28;20032;-75
2022/04/15 00:26:01;;;;;;;5.78;3.78;;;8.10;99.90;;;;;;5075927;28;20123;-75
2022/04/15 00:28:27;;;;;;;6.05;3.80;;;8.00;99.90;;;;;;5075673;28;20519;-75
2022/04/15 00:30:53;;;;;;;7.07;4.07;;;8.00;99.90;;;;;;5075740;28;20044;-75
2022/04/15 00:33:19;;;;;;;10.30;4.45;;;8.00;99.90;;;;;;5075707;28;20434;-75
2022/04/15 00:35:44;;;;;;;15.38;8.43;;;8.00;99.90;;;;;;5075752;28;20173;-75
2022/04/15 00:38:10;;;;;;;14.50;7.00;;;8.00;99.90;;;;;;5075367;28;20064;-75
2022/04/15 00:40:36;;;;;;;13.48;7.72;;;7.90;99.90;;;;;;5075512;28;20040;-75
2022/04/15 00:43:01;;;;;;;14.52;7.97;;;8.00;99.90;;;;;;5075257;28;20126;-75
2022/04/15 00:45:27;;;;;;;12.18;7.30;;;8.00;99.90;;;;;;5075211;28;20047;-75
2022/04/15 00:47:57;;;;;;;12.52;7.18;;;8.00;99.90;;;;;;5059065;28;20039;-75
2022/04/15 00:50:34;;;;;;;12.65;6.78;;;8.00;99.90;;;;;;5075644;28;20047;-75
2022/04/15 00:53:09;;;;;;;11.13;6.03;;;8.00;99.90;;;;;;5075242;28;20044;-75
2022/04/15 00:55:35;;;;;;;12.23;6.25;;;8.00;99.90;;;;;;5075237;28;20484;-74
2022/04/15 00:58:03;;;;;;;12.52;5.47;;;8.00;99.90;;;;;;5075204;28;20043;-75
2022/04/15 01:00:30;;;;;;;11.68;5.45;;;8.00;99.90;;;;;;5075319;28;20040;-75
2022/04/15 01:02:57;;;;;;;12.13;5.88;;;8.00;99.90;;;;;;5075196;28;20036;-75
2022/04/15 01:05:24;;;;;;;11.18;5.20;;;8.00;99.90;;;;;;5074950;28;20043;-75
2022/04/15 01:07:51;;;;;;;15.43;5.70;;;8.10;99.90;;;;;;5058315;28;20048;-75
2022/04/15 01:10:19;;;;;;;8.80;5.45;;;8.10;99.90;;;;;;5074965;28;20036;-75
2022/04/15 01:12:47;;;;;;;10.57;5.53;;;8.10;99.90;;;;;;5058479;28;20043;-76
2022/04/15 01:15:13;;;;;;;9.63;6.15;;;8.10;99.90;;;;;;5075030;28;20044;-75
2022/04/15 01:17:40;;;;;;;9.82;6.00;;;8.20;99.90;;;;;;5058258;28;20059;-75
2022/04/15 01:20:11;;;;;;;11.20;6.15;;;8.20;99.90;;;;;;5060109;28;20488;-75
2022/04/15 01:22:41;;;;;;;11.45;6.40;;;8.20;99.90;;;;;;5078663;28;20047;-75
2022/04/15 01:25:15;;;;;;;10.07;5.63;;;8.20;99.90;;;;;;5078568;28;20040;-75
2022/04/15 01:27:45;;;;;;;13.27;5.55;;;8.20;99.90;;;;;;5078946;28;20411;-75
2022/04/15 01:30:12;;;;;;;9.00;5.28;;;8.20;99.90;;;;;;5078220;28;20048;-75
2022/04/15 01:32:38;;;;;;;10.65;6.10;;;8.20;99.90;;;;;;5078445;28;20389;-75
2022/04/15 01:35:06;;;;;;;10.30;5.55;;;8.30;99.90;;;;;;5078532;28;20047;-75
2022/04/15 01:37:32;;;;;;;10.98;5.50;;;8.30;99.90;;;;;;5078193;28;20043;-75
2022/04/15 01:39:58;;;;;;;10.35;5.07;;;8.40;99.90;;;;;;5078298;28;20043;-75
2022/04/15 01:42:25;;;;;;;11.10;5.50;;;8.40;99.90;;;;;;5078547;28;20040;-75
2022/04/15 01:44:50;;;;;;;9.05;5.00;;;8.40;99.90;;;;;;5078140;28;20074;-75
2022/04/15 01:47:16;;;;;;;11.05;6.10;;;8.40;99.90;;;;;;5078176;28;20032;-75
2022/04/15 01:49:42;;;;;;;16.23;5.97;;;8.50;99.90;;;;;;5078028;28;20044;-75
2022/04/15 01:52:08;;;;;;;8.35;5.63;;;8.50;99.90;;;;;;5078158;28;20507;-75
2022/04/15 01:54:34;;;;;;;12.10;6.75;;;8.60;99.90;;;;;;5078186;28;20040;-76
2022/04/15 01:57:00;;;;;;;12.40;6.15;;;8.60;99.90;;;;;;5078018;28;20040;-76
2022/04/15 01:59:25;;;;;;;9.98;5.43;;;8.60;99.90;;;;;;5078047;28;20097;-75
2022/04/15 02:01:54;;;;;;;10.02;4.93;;;8.60;99.90;;;;;;5078213;28;20034;-75
2022/04/15 02:04:27;;;;;;;11.90;5.43;;;8.60;99.90;;;;;;5077875;28;20062;-75
2022/04/15 02:06:53;;;;;;;10.93;5.95;;;8.70;99.90;;;;;;5061349;28;20088;-75
2022/04/15 02:09:20;;;;;;;11.98;5.65;;;8.70;99.90;;;;;;5077694;28;20416;-75
2022/04/15 02:11:45;;;;;;;9.45;5.50;;;8.70;99.90;;;;;;5077810;28;20493;-75
2022/04/15 02:14:12;;;;;;;10.98;5.68;;;8.70;99.90;;;;;;5077961;28;20055;-75
2022/04/15 02:16:38;;;;;;;12.93;5.70;;;8.70;99.90;;;;;;5077593;28;20082;-75
2022/04/15 02:19:04;;;;;;;15.30;6.13;;;8.70;99.90;;;;;;5077719;28;20047;-75
2022/04/15 02:21:30;;;;;;;13.35;6.38;;;8.70;99.90;;;;;;5077455;28;20039;-75
2022/04/15 02:23:56;;;;;;;12.05;6.05;;;8.80;99.90;;;;;;5077623;28;20123;-75
2022/04/15 02:26:21;;;;;;;15.68;5.95;;;8.80;99.90;;;;;;5077436;28;20040;-75
2022/04/15 02:28:47;;;;;;;9.18;5.40;;;8.80;99.90;;;;;;5077282;28;20040;-75
2022/04/15 02:31:12;;;;;;;11.05;5.47;;;8.80;99.90;;;;;;5076543;28;20131;-75
2022/04/15 02:33:38;;;;;;;10.93;6.60;;;8.80;99.90;;;;;;5077252;28;20040;-75
2022/04/15 02:36:04;;;;;;;11.52;5.80;;;8.80;99.90;;;;;;5077673;28;20127;-74
2022/04/15 02:38:30;;;;;;;12.48;5.80;;;8.90;99.90;;;;;;5059983;28;20044;-74
2022/04/15 02:40:55;;;;;;;14.23;6.10;;;8.90;99.90;;;;;;5076699;28;20127;-74
2022/04/15 02:43:25;;;;;;;13.07;6.20;;;8.90;99.90;;;;;;5076553;28;20114;-74
2022/04/15 02:45:51;;;;;;;14.20;6.10;;;8.90;99.90;;;;;;5076629;28;20036;-73
2022/04/15 02:48:17;;;;;;;10.52;6.00;;;9.00;99.90;;;;;;5076727;28;20059;-73
2022/04/15 02:50:45;;;;;;;15.88;6.88;;;9.00;99.90;;;;;;5076750;28;20040;-73
2022/04/15 02:53:11;;;;;;;14.60;6.45;;;9.00;99.90;;;;;;5076718;28;20047;-73
2022/04/15 02:55:37;;;;;;;11.02;6.47;;;9.00;99.90;;;;;;5059667;28;20040;-73
2022/04/15 02:58:03;;;;;;;15.27;5.85;;;9.00;99.90;;;;;;5059655;28;20043;-73
2022/04/15 03:00:28;;;;;;;12.07;5.55;;;9.00;99.90;;;;;;5076491;28;20378;-73
2022/04/15 03:02:54;;;;;;;12.77;6.03;;;9.00;99.90;;;;;;5076253;28;20076;-74
2022/04/15 03:05:19;;;;;;;12.60;5.95;;;9.00;99.90;;;;;;5076218;28;20093;-74
2022/04/15 03:07:45;;;;;;;11.18;5.65;;;8.90;99.90;;;;;;5076226;28;20061;-74
2022/04/15 03:10:10;;;;;;;13.48;6.20;;;9.00;99.90;;;;;;5075999;28;20189;-74
2022/04/15 03:12:37;;;;;;;12.55;6.45;;;9.00;99.90;;;;;;5076120;28;20050;-74
2022/04/15 03:15:04;;;;;;;11.13;5.75;;;9.00;99.90;;;;;;5076246;28;20075;-73
2022/04/15 03:17:31;;;;;;;10.70;5.93;;;9.00;99.90;;;;;;5075941;28;20072;-73
2022/04/15 03:19:56;;;;;;;11.52;6.22;;;9.00;99.90;;;;;;5059691;28;20055;-73
2022/04/15 03:22:22;;;;;;;12.13;5.93;;;9.00;99.90;;;;;;5059219;28;20122;-73
2022/04/15 03:24:50;;;;;;;10.30;5.75;;;9.00;99.90;;;;;;5059106;28;20068;-73
2022/04/15 03:27:16;;;;;;;10.10;5.05;;;9.00;99.90;;;;;;5075737;28;20445;-73
2022/04/15 03:29:43;;;;;;;11.02;5.53;;;9.00;99.90;;;;;;5076004;28;20075;-73
2022/04/15 03:32:09;;;;;;;10.93;5.65;;;9.10;99.90;;;;;;5075726;28;20492;-73
2022/04/15 03:34:36;;;;;;;8.85;6.10;;;9.10;99.90;;;;;;5075952;28;20043;-74
2022/04/15 03:37:03;;;;;;;10.75;5.68;;;9.10;99.90;;;;;;5075548;28;20071;-74
2022/04/15 03:39:28;;;;;;;11.20;6.18;;;9.10;99.90;;;;;;5059043;28;20048;-74
2022/04/15 03:41:54;;;;;;;10.88;6.32;;;9.10;99.90;;;;;;5075813;28;20047;-74
2022/04/15 03:44:19;;;;;;;13.77;6.65;;;9.00;99.90;;;;;;5074916;28;20039;-74
2022/04/15 03:46:45;;;;;;;6.63;5.40;;;9.00;99.90;;;;;;5075497;28;20042;-74
2022/04/15 03:49:10;;;;;;;10.07;5.97;;;8.90;99.90;;;;;;5075382;28;20082;-74
2022/04/15 03:51:36;;;;;;;9.35;6.05;;;9.00;99.90;;;;;;5059067;28;20097;-74
2022/04/15 03:54:01;;;;;;;13.15;6.00;;;8.90;99.90;;;;;;5075392;28;20165;-74
2022/04/15 03:56:27;;;;;;;11.55;5.30;;;9.00;99.90;;;;;;5058742;28;20039;-74
2022/04/15 03:58:52;;;;;;;10.35;5.63;;;8.90;99.90;;;;;;5075200;28;20028;-74
2022/04/15 04:01:18;;;;;;;10.48;5.93;;;9.00;99.90;;;;;;5075358;28;20496;-74
2022/04/15 04:03:44;;;;;;;13.55;6.40;;;8.90;99.90;;;;;;5058646;28;20038;-74
2022/04/15 04:06:09;;;;;;;10.38;5.50;;;9.00;99.90;;;;;;5075327;28;20400;-74
2022/04/15 04:08:35;;;;;;;8.95;6.13;;;9.00;99.90;;;;;;5075184;28;20463;-74
2022/04/15 04:11:00;;;;;;;11.80;5.25;;;9.00;99.90;;;;;;5075208;28;20043;-74
2022/04/15 04:13:26;;;;;;;12.05;5.88;;;9.00;99.90;;;;;;5075234;28;20054;-74
2022/04/15 04:15:52;;;;;;;14.65;5.80;;;9.00;99.90;;;;;;5075149;28;20123;-73
2022/04/15 04:18:20;;;;;;;16.45;6.28;;;9.00;99.90;;;;;;5074989;28;20119;-73
2022/04/15 04:20:47;;;;;;;7.88;4.75;;;9.00;99.90;;;;;;5075340;28;20044;-73
2022/04/15 04:23:12;;;;;;;10.27;5.82;;;9.00;99.90;;;;;;5075074;28;20082;-73
2022/04/15 04:25:38;;;;;;;11.63;5.82;;;9.10;99.90;;;;;;5075041;28;20031;-73
2022/04/15 04:28:04;;;;;;;10.13;5.82;;;9.10;99.90;;;;;;5075291;28;20127;-73
2022/04/15 04:30:29;;;;;;;9.07;5.85;;;9.10;99.90;;;;;;5075343;28;20036;-73
2022/04/15 04:32:58;;;;;;;11.82;6.35;;;9.10;99.90;;;;;;5058333;28;20497;-73
2022/04/15 04:35:23;;;;;;;11.02;6.47;;;9.10;99.90;;;;;;5074914;28;20385;-73
2022/04/15 04:37:49;;;;;;;12.80;7.22;;;9.10;99.90;;;;;;5074932;28;20047;-73
2022/04/15 04:40:15;;;;;;;11.23;6.88;;;9.10;99.90;;;;;;5075105;28;20040;-73
2022/04/15 04:42:42;;;;;;;8.82;6.70;;;9.10;99.90;;;;;;5058396;28;20051;-73
2022/04/15 04:45:10;;;;;;;11.75;7.57;;;9.10;99.90;;;;;;5075108;28;20063;-73
2022/04/15 04:47:38;;;;;;;8.43;7.20;;;9.20;99.90;;;;;;5074845;28;20040;-73
2022/04/15 04:50:04;;;;;;;8.30;6.28;;;9.10;99.90;;;;;;5074793;28;20048;-73
2022/04/15 04:52:30;;;;;;;8.02;6.60;;;9.10;99.90;;;;;;5074800;28;20036;-73
2022/04/15 04:54:56;;;;;;;7.80;5.90;;;9.10;99.90;;;;;;5076309;28;20048;-73
2022/04/15 04:57:21;;;;;;;7.45;5.63;;;9.10;99.90;;;;;;5078555;28;20047;-73
2022/04/15 04:59:47;;;;;;;9.88;5.80;;;9.10;99.90;;;;;;5078602;28;20043;-73
2022/04/15 05:02:12;;;;;;;6.13;5.53;;;9.10;99.90;;;;;;5078594;28;20036;-73
2022/04/15 05:04:40;;;;;;;7.35;5.40;;;9.10;99.90;;;;;;5078550;28;20068;-73
2022/04/15 05:07:06;;;;;;;7.15;5.07;;;9.10;99.90;;;;;;5078442;28;20405;-73
2022/04/15 05:09:32;;;;;;;6.57;5.05;;;9.10;99.90;;;;;;5078329;28;20040;-73
2022/04/15 05:11:57;;;;;;;6.07;4.72;;;9.10;99.90;;;;;;5078398;28;20123;-73
2022/04/15 05:14:23;;;;;;;5.95;4.28;;;9.10;99.90;;;;;;5078341;28;20035;-73
2022/04/15 05:16:49;;;;;;;7.80;4.82;;;9.10;99.90;;;;;;5078236;28;20044;-73
2022/04/15 05:19:14;;;;;;;6.45;4.40;;;9.10;99.90;;;;;;5078223;28;20079;-73
2022/04/15 05:21:41;;;;;;;7.18;4.18;;;9.10;99.90;;;;;;5061599;28;20036;-73
2022/04/15 05:24:08;;;;;;;7.93;4.50;;;9.20;99.90;;;;;;5078091;28;20036;-74
2022/04/15 05:26:34;;;;;;;4.85;4.20;;;9.10;99.90;;;;;;5078151;28;20043;-74
2022/04/15 05:29:01;;;;;;;6.07;4.35;;;9.10;99.90;;;;;;5061295;28;20496;-74
2022/04/15 05:31:26;;;;;;;14.98;5.18;;;9.20;99.90;;;;;;5078046;28;20036;-74
2022/04/15 05:33:52;;;;;;;7.00;4.13;;;9.20;99.90;;;;;;5078033;28;20047;-74
2022/04/15 05:36:17;;;;;;;7.25;4.40;;;9.20;99.90;;;;;;5077992;28;20043;-74
2022/04/15 05:38:43;;;;;;;7.72;3.83;;;9.20;99.90;;;;;;5078403;28;20036;-74
2022/04/15 05:41:09;;;;;;;8.35;4.40;;;9.20;99.90;;;;;;5061278;28;20093;-73
2022/04/15 05:43:34;;;;;;;5.80;4.00;;;9.10;99.90;;;;;;5078105;28;20042;-73
2022/04/15 05:46:00;;;;;;;7.00;4.13;;;9.20;99.90;;;;;;5077898;28;20407;-73
2022/04/15 05:48:25;;;;;;;6.03;4.18;;;9.10;99.90;;;;;;5077949;28;20032;-73
2022/04/15 05:50:51;;;;;;;9.90;4.07;;;9.10;99.90;;;;;;5077675;28;20531;-73
2022/04/15 05:53:17;;;;;;;6.47;3.33;;;9.10;99.90;;;;;;5077916;28;20051;-73
2022/04/15 05:55:42;;;;;;;6.68;3.42;;;9.10;99.90;;;;;;5078449;28;20476;-73
2022/04/15 05:58:10;;;;;;;5.35;3.22;;;9.10;99.90;;;;;;5077359;28;20088;-73
2022/04/15 06:00:38;;;;;;;4.70;3.15;;;9.00;99.90;;;;;;5077549;28;20052;-73
2022/04/15 06:03:04;;;;;;;4.30;2.80;;;9.00;99.90;;;;;;5077441;28;20043;-73
2022/04/15 06:05:30;;;;;;;6.95;2.95;;;9.00;99.90;;;;;;5076995;28;20043;-73
2022/04/15 06:07:56;;;;;;;4.43;3.00;;;9.00;99.90;;;;;;5076592;28;20047;-73
2022/04/15 06:10:21;;;;;;;5.75;2.78;;;8.90;99.90;;;;;;5077604;28;20035;-73
2022/04/15 06:13:09;;;;;;;6.80;2.65;;;8.90;99.90;;;;;;5077334;28;20043;-73
2022/04/15 06:15:41;;;;;;;9.32;2.72;;;8.90;99.90;;;;;;5077895;28;20044;-72
2022/04/15 06:18:07;;;;;;;4.43;3.15;;;8.80;99.90;;;;;;5077265;28;20036;-72
2022/04/15 06:20:34;;;;;;;4.40;2.45;;;8.80;99.90;;;;;;5077665;28;20044;-72
2022/04/15 06:23:00;;;;;;;4.47;2.30;;;8.80;99.90;;;;;;5077363;28;20043;-73
2022/04/15 06:25:26;;;;;;;5.28;2.63;;;8.80;99.90;;;;;;5077156;28;20032;-73
2022/04/15 06:27:54;;;;;;;4.78;2.67;;;8.80;99.90;;;;;;5060581;28;20036;-73
2022/04/15 06:30:21;;;;;;;4.05;2.47;;;8.80;99.90;;;;;;5060477;28;20412;-73
2022/04/15 06:32:47;;;;;;;3.33;2.40;;;8.80;99.90;;;;;;5077348;28;20087;-73
2022/04/15 06:35:13;;;;;;;6.35;2.63;;;8.80;99.90;;;;;;5076848;28;20051;-73
2022/04/15 06:37:38;;;;;;;5.15;2.78;;;8.80;99.90;;;;;;5076760;28;20032;-73
2022/04/15 06:40:04;;;;;;;5.40;2.60;;;8.80;99.90;;;;;;5076702;28;20044;-73
2022/04/15 06:42:34;;;;;;;5.32;3.00;;;8.80;99.90;;;;;;5077142;28;20047;-73
2022/04/15 06:45:00;;;;;;;5.70;3.20;;;8.80;99.90;;;;;;5076898;28;20047;-73
2022/04/15 06:47:26;;;;;;;5.65;3.25;;;8.90;99.90;;;;;;5077366;28;20127;-73
2022/04/15 06:49:52;;;;;;;6.93;3.67;;;8.90;99.90;;;;;;5076800;28;20130;-73
2022/04/15 06:52:18;;;;;;;6.38;3.42;;;8.80;99.90;;;;;;5060100;28;20485;-73
2022/04/15 06:54:44;;;;;;;6.45;3.40;;;8.80;99.90;;;;;;5076478;28;20496;-73
2022/04/15 06:57:09;;;;;;;3.80;3.40;;;8.80;99.90;;;;;;5076278;28;20089;-73
2022/04/15 06:59:35;;;;;;;8.48;3.70;;;8.90;99.90;;;;;;5076197;28;20042;-73
2022/04/15 07:02:01;;;;;;;7.78;4.40;;;8.80;99.90;;;;;;5059918;28;20047;-73
2022/04/15 07:04:28;;;;;;;4.85;4.05;;;8.90;99.90;;;;;;5076489;28;20035;-73
2022/04/15 07:06:57;;;;;;;6.82;4.28;;;8.90;99.90;;;;;;5076188;28;20035;-74
2022/04/15 07:09:23;;;;;;;7.18;4.38;;;8.90;99.90;;;;;;5076095;28;20067;-74
2022/04/15 07:11:48;;;;;;;10.73;4.70;;;8.90;99.90;;;;;;5076447;28;20040;-74
2022/04/15 07:14:14;;;;;;;7.20;4.75;;;9.00;99.90;;;;;;5076104;28;20035;-73
2022/04/15 07:16:39;;;;;;;8.35;4.78;;;8.90;99.90;;;;;;5059387;28;20032;-73
2022/04/15 07:19:07;;;;;;;6.32;4.63;;;9.00;99.90;;;;;;5075589;28;20044;-73
2022/04/15 07:21:33;;;;;;;7.13;5.20;;;9.00;99.90;;;;;;5076200;28;20078;-73
2022/04/15 07:23:59;;;;;;;8.57;5.07;;;9.10;99.90;;;;;;5059295;28;20040;-73
2022/04/15 07:26:24;;;;;;;10.15;5.68;;;9.10;99.90;;;;;;5076057;28;20088;-73
2022/04/15 07:28:50;;;;;;;9.57;5.88;;;9.20;99.90;;;;;;5076408;28;20408;-73
2022/04/15 07:31:16;;;;;;;10.65;5.65;;;9.20;99.90;;;;;;5059104;28;20044;-73
2022/04/15 07:33:41;;;;;;;7.72;6.38;;;9.20;99.90;;;;;;5075734;28;20047;-73
2022/04/15 07:36:31;;;;;;;11.90;6.60;;;9.30;99.90;;;;;;5075657;28;20032;-73
2022/04/15 07:38:52;;;;;;;9.32;5.88;;;9.30;99.90;;;;;;5075523;28;20047;-73
2022/04/15 07:41:18;;;;;;;8.20;6.53;;;9.30;99.90;;;;;;5076253;28;20039;-73
2022/04/15 07:43:45;;;;;;;11.45;7.07;;;9.30;99.90;;;;;;5075722;28;20070;-73
2022/04/15 07:46:10;;;;;;;9.57;7.03;;;9.30;99.90;;;;;;5058887;28;20047;-73
2022/04/15 07:48:36;;;;;;;11.48;6.85;;;9.30;99.90;;;;;;5075535;28;20040;-73
2022/04/15 07:51:05;;;;;;;10.10;6.60;;;9.30;99.90;;;;;;5058785;28;20082;-73
2022/04/15 07:53:30;;;;;;;10.32;7.00;;;9.40;99.90;;;;;;5075371;28;20443;-73
2022/04/15 07:55:56;;;;;;;13.48;7.40;;;9.40;99.90;;;;;;5075442;28;20040;-73
2022/04/15 07:58:21;;;;;;;13.52;8.00;;;9.50;99.90;;;;;;5058551;28;20040;-73
2022/04/15 08:00:47;;;;;;;10.52;7.90;;;9.50;99.90;;;;;;5075354;28;20043;-73
2022/04/15 08:03:12;;;;;;;12.05;8.20;;;9.50;99.90;;;;;;5075255;28;20047;-73
2022/04/15 08:05:38;;;;;;;12.90;8.07;;;9.60;99.90;;;;;;5075281;28;20036;-73
2022/04/15 08:08:04;;;;;;;9.52;7.35;;;9.60;99.90;;;;;;5075175;28;20071;-73
2022/04/15 08:10:29;;;;;;;12.80;8.88;;;9.60;99.90;;;;;;5075179;28;20088;-73
2022/04/15 08:12:55;;;;;;;13.55;8.80;;;9.60;99.90;;;;;;5075226;28;20051;-73
2022/04/15 08:15:21;;;;;;;14.20;8.93;;;9.70;99.90;;;;;;5075133;28;20047;-73
2022/04/15 08:17:47;;;;;;;14.93;8.55;;;9.70;99.90;;;;;;5075133;28;20047;-74
2022/04/15 08:20:15;;;;;;;17.60;8.52;;;9.70;99.90;;;;;;5074989;28;20036;-73
2022/04/15 08:22:41;;;;;;;12.43;8.75;;;9.70;99.90;;;;;;5075150;28;20517;-72
2022/04/15 08:25:07;;;;;;;15.90;9.57;;;9.80;99.90;;;;;;5075474;28;20040;-72
2022/04/15 08:27:33;;;;;;;17.40;9.13;;;9.80;99.90;;;;;;5058372;28;20048;-72
2022/04/15 08:29:59;;;;;;;15.32;9.00;;;9.80;99.90;;;;;;5076632;28;20132;-73
2022/04/15 08:32:26;;;;;;;14.55;8.23;;;9.90;99.90;;;;;;5062677;28;20047;-72
2022/04/15 08:34:52;;;;;;;16.27;7.82;;;10.00;99.90;;;;;;5079360;28;20047;-72
2022/04/15 08:37:18;;;;;;;13.63;8.38;;;10.00;99.90;;;;;;5079181;28;20570;-75
2022/04/15 08:39:43;;;;;;;11.25;6.85;;;10.00;99.90;;;;;;5078991;28;20047;-73
2022/04/15 08:42:09;;;;;;;12.18;7.38;;;10.10;99.90;;;;;;5079030;28;20040;-73
2022/04/15 08:44:34;;;;;;;14.25;7.50;;;10.00;99.90;;;;;;5078918;28;20032;-73
2022/04/15 08:47:02;;;;;;;14.45;7.28;;;10.00;99.90;;;;;;5079251;28;20040;-73
2022/04/15 08:49:29;;;;;;;13.85;7.78;;;10.10;99.90;;;;;;5062308;28;20039;-73
2022/04/15 08:51:55;;;;;;;11.02;7.00;;;10.10;99.90;;;;;;5079076;28;20028;-73
2022/04/15 08:54:21;;;;;;;11.20;7.05;;;10.20;99.90;;;;;;5078711;28;20515;-73
2022/04/15 08:56:47;;;;;;;14.25;7.60;;;10.20;99.90;;;;;;5078729;28;20488;-73
2022/04/15 08:59:14;;;;;;;12.07;7.00;;;10.20;99.90;;;;;;5061846;28;20040;-73
2022/04/15 09:01:40;;;;;;;12.20;6.45;;;10.20;99.90;;;;;;5078627;28;20052;-73
2022/04/15 09:04:05;;;;;;;10.63;6.13;;;10.20;99.90;;;;;;5078775;28;20040;-73
2022/04/15 09:06:31;;;;;;;13.90;6.90;;;10.20;99.90;;;;;;5078581;28;20385;-73
2022/04/15 09:09:08;;;;;;;15.27;6.78;;;10.30;99.90;;;;;;5061624;28;20040;-73
2022/04/15 09:11:35;;;;;;;15.88;7.22;;;10.30;99.90;;;;;;5078425;28;20040;-73
2022/04/15 09:14:12;;;;;;;17.35;7.57;;;10.30;99.90;;;;;;5078363;28;20044;-73
2022/04/15 09:16:42;;;;;;;17.65;6.43;;;10.40;99.90;;;;;;5061715;28;20097;-73
2022/04/15 09:19:09;;;;;;;15.00;6.57;;;10.50;99.90;;;;;;5078118;28;20584;-73
2022/04/15 09:21:36;;;;;;;13.63;6.22;;;10.50;99.90;;;;;;5078225;28;20209;-73
2022/04/15 09:24:03;;;;;;;12.20;6.65;;;10.60;99.90;;;;;;5078187;28;20085;-73
2022/04/15 09:26:29;;;;;;;9.68;5.90;;;10.60;99.90;;;;;;5078099;28;20042;-73
2022/04/15 09:28:55;;;;;;;9.13;5.20;;;10.80;99.90;;;;;;5061266;28;20123;-73
2022/04/15 09:31:23;;;;;;;11.00;5.28;;;10.90;99.90;;;;;;5078055;28;20062;-73
2022/04/15 09:34:02;;;;;;;8.13;4.63;;;11.00;99.90;;;;;;5078296;28;20036;-73
2022/04/15 09:36:33;;;;;;;8.20;4.50;;;11.10;99.90;;;;;;5078007;28;20075;-73
2022/04/15 09:39:10;;;;;;;6.97;4.35;;;11.10;99.90;;;;;;5077916;28;20051;-73
2022/04/15 09:41:37;;;;;;;8.18;4.60;;;11.30;99.90;;;;;;5061132;28;20477;-73
2022/04/15 09:44:02;;;;;;;8.52;4.38;;;11.50;99.90;;;;;;5077664;28;20036;-74
2022/04/15 09:46:30;;;;;;;7.30;4.35;;;12.00;99.90;;;;;;5077750;28;20033;-74
2022/04/15 09:49:10;;;;;;;7.13;4.13;;;12.50;99.90;;;;;;5077713;28;20051;-74
2022/04/15 09:51:47;;;;;;;10.07;4.30;;;13.00;99.90;;;;;;5077867;28;20107;-73
2022/04/15 09:54:27;;;;;;;8.68;4.45;;;13.50;99.90;;;;;;5077519;28;20407;-73
2022/04/15 09:56:55;;;;;;;9.40;4.43;;;13.90;99.90;;;;;;5077460;28;20519;-72
2022/04/15 09:59:30;;;;;;;6.88;4.00;;;14.30;99.90;;;;;;5077411;28;20035;-72
2022/04/15 10:02:04;;;;;;;7.75;4.32;;;14.70;99.90;;;;;;5077520;28;20123;-72
2022/04/15 10:04:30;;;;;;;7.88;4.63;;;14.90;99.90;;;;;;5077757;28;20040;-72
2022/04/15 10:06:56;;;;;;;7.00;4.32;;;15.00;99.90;;;;;;5077700;28;20054;-72
2022/04/15 10:09:22;;;;;;;9.18;4.35;;;15.10;99.90;;;;;;5077473;28;20448;-72
2022/04/15 10:11:49;;;;;;;7.25;4.32;;;15.20;99.90;;;;;;5077287;28;20036;-72
2022/04/15 10:14:16;;;;;;;10.35;5.18;;;15.00;99.90;;;;;;5077555;28;20454;-72
2022/04/15 10:16:42;;;;;;;6.10;4.07;;;14.90;99.90;;;;;;5077395;28;20176;-73
2022/04/15 10:19:10;;;;;;;5.78;3.88;;;14.80;99.90;;;;;;5077092;28;20145;-73
2022/04/15 10:21:39;;;;;;;6.68;4.18;;;14.60;99.90;;;;;;5077125;28;20044;-71
2022/04/15 10:24:08;;;;;;;7.20;3.95;;;14.50;99.90;;;;;;5077108;28;20036;-72
2022/04/15 10:26:38;;;;;;;7.72;4.18;;;14.30;99.90;;;;;;5060529;28;20176;-73
2022/04/15 10:29:04;;;;;;;8.18;4.55;;;14.20;99.90;;;;;;5078074;28;20140;-74
2022/04/15 10:31:42;;;;;;;9.07;4.55;;;14.00;99.90;;;;;;5060685;28;20040;-74
2022/04/15 10:34:16;;;;;;;8.05;4.15;;;13.80;99.90;;;;;;5077084;28;20044;-74
2022/04/15 10:36:53;;;;;;;8.25;3.85;;;13.60;99.90;;;;;;5060161;28;20043;-74
2022/04/15 10:39:24;;;;;;;6.25;4.40;;;13.50;99.90;;;;;;5077203;28;20040;-73
2022/04/15 10:41:51;;;;;;;8.10;4.10;;;13.30;99.90;;;;;;5076736;28;20028;-73
2022/04/15 10:44:42;;;;;;;8.93;4.38;;;13.10;99.90;;;;;;5076558;28;20035;-73
2022/04/15 10:47:19;;;;;;;8.77;4.03;;;13.10;99.90;;;;;;5076968;28;20111;-73
2022/04/15 10:50:04;;;;;;;6.47;3.58;;;13.10;99.90;;;;;;5076808;28;20036;-74
2022/04/15 10:52:33;;;;;;;7.70;3.97;;;13.20;99.90;;;;;;5075979;28;20044;-73
2022/04/15 10:55:04;;;;;;;7.75;3.92;;;13.20;99.90;;;;;;5076451;28;20040;-73
2022/04/15 10:57:37;;;;;;;9.10;5.45;;;13.30;99.90;;;;;;5076376;28;20487;-73
2022/04/15 11:03:20;;;;;;;7.95;4.28;;;13.40;99.90;;;;;;5076651;28;20048;-74
2022/04/15 11:05:46;;;;;;;8.38;4.50;;;13.40;99.90;;;;;;5076300;28;20476;-73
2022/04/15 11:08:12;;;;;;;9.65;4.70;;;13.40;99.90;;;;;;5059415;28;20088;-74
2022/04/15 11:10:51;;;;;;;7.93;4.57;;;13.40;99.90;;;;;;5076191;28;20036;-73
2022/04/15 11:13:22;;;;;;;8.07;4.82;;;13.30;99.90;;;;;;5076094;28;20043;-73
2022/04/15 11:16:04;;;;;;;9.75;5.30;;;13.20;99.90;;;;;;5075985;28;20460;-73
2022/04/15 11:18:53;;;;;;;7.22;4.75;;;13.20;99.90;;;;;;5075795;28;20409;-74
2022/04/15 11:21:33;;;;;;;7.47;4.28;;;13.20;99.90;;;;;;5059333;28;20467;-73
2022/04/15 11:24:00;;;;;;;7.68;4.85;;;13.20;99.90;;;;;;5076145;28;20047;-73
2022/04/15 11:26:27;;;;;;;7.18;4.40;;;13.10;99.90;;;;;;5076096;28;20032;-73
2022/04/15 11:28:55;;;;;;;7.60;4.20;;;13.20;99.90;;;;;;5076079;28;20035;-73
2022/04/15 11:31:29;;;;;;;8.63;4.65;;;13.20;99.90;;;;;;5075807;28;20044;-73
2022/04/15 11:33:56;;;;;;;7.13;4.38;;;13.20;99.90;;;;;;5076032;28;20036;-73
2022/04/15 11:36:23;;;;;;;8.68;4.72;;;13.10;99.90;;;;;;5075669;28;20040;-72
2022/04/15 11:38:50;;;;;;;7.00;4.22;;;13.10;99.90;;;;;;5075540;28;20040;-73
2022/04/15 11:41:21;;;;;;;9.30;4.70;;;13.10;99.90;;;;;;5075612;28;20127;-72
2022/04/15 11:44:03;;;;;;;6.40;4.28;;;13.00;99.90;;;;;;5059003;28;20118;-73
2022/04/15 11:46:42;;;;;;;7.43;5.03;;;12.90;99.90;;;;;;5075867;28;20097;-73
2022/04/15 11:49:31;;;;;;;8.57;4.63;;;12.90;99.90;;;;;;5075636;28;20127;-73
2022/04/15 11:51:59;;;;;;;8.52;4.47;;;12.80;99.90;;;;;;5075424;28;20043;-73
2022/04/15 11:54:38;;;;;;;6.60;4.35;;;12.80;99.90;;;;;;5075446;28;20039;-73
2022/04/15 11:57:05;;;;;;;6.50;4.82;;;12.80;99.90;;;;;;5075445;28;20051;-73
2022/04/15 11:59:41;;;;;;;7.47;4.65;;;12.80;99.90;;;;;;5075376;28;20036;-73
2022/04/15 12:02:07;;;;;;;8.18;4.50;;;12.90;99.90;;;;;;5058509;28;20040;-73
2022/04/15 12:04:33;;;;;;;5.47;4.18;;;12.80;99.90;;;;;;5074672;28;20032;-73
2022/04/15 12:06:59;;;;;;;5.80;3.97;;;12.80;99.90;;;;;;5075200;28;20119;-73
2022/04/15 12:09:26;;;;;;;5.70;4.30;;;12.80;99.90;;;;;;5075197;28;20043;-73
2022/04/15 12:11:52;;;;;;;5.40;3.67;;;12.90;99.90;;;;;;5075152;28;20044;-73
2022/04/15 12:14:18;;;;;;;5.95;3.85;;;12.90;99.90;;;;;;5075152;28;20447;-73
2022/04/15 12:16:46;;;;;;;6.95;4.13;;;12.90;99.90;;;;;;5075180;28;20036;-73
2022/04/15 12:19:12;;;;;;;6.25;4.00;;;13.00;99.90;;;;;;5075066;28;20036;-73
2022/04/15 12:21:38;;;;;;;4.85;3.80;;;13.00;99.90;;;;;;5075140;28;20446;-73
2022/04/15 12:24:05;;;;;;;7.10;4.10;;;13.00;99.90;;;;;;5075097;28;20517;-73
2022/04/15 12:27:06;;;;;;;7.43;4.10;;;13.10;99.90;;;;;;5075348;28;20396;-73
2022/04/15 12:29:47;;;;;;;7.32;4.53;;;13.10;99.90;;;;;;4994792;28;20050;-73
2022/04/15 12:32:21;;;;;;;5.72;4.00;;;13.10;99.90;;;;;;4995281;28;20060;-73
2022/04/15 12:35:09;;;;;;;6.90;4.68;;;13.10;99.90;;;;;;4994801;28;20084;-73
2022/04/15 12:37:43;;;;;;;7.63;3.92;;;13.10;99.90;;;;;;5011167;28;20510;-73
2022/04/15 12:40:13;;;;;;;6.15;3.78;;;13.10;99.90;;;;;;4978441;28;20033;-73
2022/04/15 12:42:41;;;;;;;7.18;5.18;;;13.00;99.90;;;;;;4978862;28;20398;-74
2022/04/15 12:45:24;;;;;;;5.68;4.22;;;12.90;99.90;;;;;;5011132;28;20050;-74
2022/04/15 12:48:07;;;;;;;7.40;5.00;;;12.80;99.90;;;;;;4994733;28;20042;-73
2022/04/15 12:50:35;;;;;;;5.75;4.20;;;12.80;99.90;;;;;;5011102;28;20546;-73
2022/04/15 12:53:12;;;;;;;6.22;4.45;;;12.70;99.90;;;;;;5010999;28;20082;-73
2022/04/15 12:55:38;;;;;;;8.77;4.80;;;12.70;99.90;;;;;;4994628;28;20506;-73